sensor_id;sensor_type;location;lat;lon;timestamp;P1;durP1;ratioP1;P2;durP2;ratioP2
26201;SDS011;13944;28.562;77.188;2023-04-21T00:01:17;30.33;;;18.98;;
26201;SDS011;13944;28.562;77.188;2023-04-21T00:03:44;37.47;;;19.63;;
26201;SDS011;13944;28.562;77.188;2023-04-21T00:06:11;39.47;;;19.13;;
26201;SDS011;13944;28.562;77.188;2023-04-21T00:08:39;40.60;;;19.27;;
26201;SDS011;13944;28.562;77.188;2023-04-21T00:11:06;38.20;;;18.63;;
26201;SDS011;13944;28.562;77.188;2023-04-21T00:13:33;34.83;;;17.70;;
26201;SDS011;13944;28.562;77.188;2023-04-21T00:16:00;50.63;;;18.85;;
26201;SDS011;13944;28.562;77.188;2023-04-21T00:18:27;36.33;;;16.50;;
26201;SDS011;13944;28.562;77.188;2023-04-21T00:20:53;33.47;;;15.88;;
26201;SDS011;13944;28.562;77.188;2023-04-21T00:23:20;31.15;;;15.55;;
26201;SDS011;13944;28.562;77.188;2023-04-21T00:25:47;29.65;;;14.05;;
26201;SDS011;13944;28.562;77.188;2023-04-21T00:28:13;38.83;;;14.45;;
26201;SDS011;13944;28.562;77.188;2023-04-21T00:30:40;30.95;;;13.73;;
26201;SDS011;13944;28.562;77.188;2023-04-21T00:33:06;38.47;;;13.40;;
26201;SDS011;13944;28.562;77.188;2023-04-21T00:35:33;109.30;;;19.55;;
26201;SDS011;13944;28.562;77.188;2023-04-21T00:37:59;48.88;;;14.65;;
26201;SDS011;13944;28.562;77.188;2023-04-21T00:40:26;42.40;;;13.52;;
26201;SDS011;13944;28.562;77.188;2023-04-21T00:42:52;36.05;;;13.90;;
26201;SDS011;13944;28.562;77.188;2023-04-21T00:45:19;34.83;;;12.85;;
26201;SDS011;13944;28.562;77.188;2023-04-21T00:47:45;29.40;;;12.57;;
26201;SDS011;13944;28.562;77.188;2023-04-21T00:50:12;36.20;;;13.50;;
26201;SDS011;13944;28.562;77.188;2023-04-21T00:52:39;65.75;;;15.18;;
26201;SDS011;13944;28.562;77.188;2023-04-21T00:55:06;44.72;;;14.02;;
26201;SDS011;13944;28.562;77.188;2023-04-21T00:57:34;45.67;;;14.07;;
26201;SDS011;13944;28.562;77.188;2023-04-21T01:00:02;32.08;;;14.27;;
26201;SDS011;13944;28.562;77.188;2023-04-21T01:02:30;87.18;;;18.15;;
26201;SDS011;13944;28.562;77.188;2023-04-21T01:04:57;46.75;;;14.90;;
26201;SDS011;13944;28.562;77.188;2023-04-21T01:07:24;50.25;;;15.35;;
26201;SDS011;13944;28.562;77.188;2023-04-21T01:09:50;37.78;;;16.13;;
26201;SDS011;13944;28.562;77.188;2023-04-21T01:12:17;34.55;;;15.27;;
26201;SDS011;13944;28.562;77.188;2023-04-21T01:14:43;34.10;;;16.90;;
26201;SDS011;13944;28.562;77.188;2023-04-21T01:17:10;36.65;;;16.95;;
26201;SDS011;13944;28.562;77.188;2023-04-21T01:19:40;37.17;;;16.27;;
26201;SDS011;13944;28.562;77.188;2023-04-21T01:22:08;39.92;;;17.45;;
26201;SDS011;13944;28.562;77.188;2023-04-21T01:27:07;39.05;;;18.20;;
26201;SDS011;13944;28.562;77.188;2023-04-21T01:29:35;44.88;;;18.17;;
26201;SDS011;13944;28.562;77.188;2023-04-21T01:32:12;46.35;;;17.75;;
26201;SDS011;13944;28.562;77.188;2023-04-21T01:34:39;51.80;;;18.08;;
26201;SDS011;13944;28.562;77.188;2023-04-21T01:37:09;41.85;;;18.48;;
26201;SDS011;13944;28.562;77.188;2023-04-21T01:39:44;40.00;;;18.30;;
26201;SDS011;13944;28.562;77.188;2023-04-21T01:42:11;41.65;;;19.80;;
26201;SDS011;13944;28.562;77.188;2023-04-21T01:44:39;43.45;;;19.92;;
26201;SDS011;13944;28.562;77.188;2023-04-21T01:47:06;45.00;;;21.77;;
26201;SDS011;13944;28.562;77.188;2023-04-21T01:49:32;40.58;;;20.77;;
26201;SDS011;13944;28.562;77.188;2023-04-21T01:51:59;43.40;;;21.88;;
26201;SDS011;13944;28.562;77.188;2023-04-21T01:54:25;40.58;;;21.88;;
26201;SDS011;13944;28.562;77.188;2023-04-21T01:56:52;51.22;;;22.48;;
26201;SDS011;13944;28.562;77.188;2023-04-21T01:59:18;46.17;;;21.83;;
26201;SDS011;13944;28.562;77.188;2023-04-21T02:01:45;51.72;;;23.40;;
26201;SDS011;13944;28.562;77.188;2023-04-21T02:04:11;43.58;;;20.75;;
26201;SDS011;13944;28.562;77.188;2023-04-21T02:06:37;43.25;;;19.65;;
26201;SDS011;13944;28.562;77.188;2023-04-21T02:09:04;45.85;;;19.90;;
26201;SDS011;13944;28.562;77.188;2023-04-21T02:11:31;43.92;;;21.83;;
26201;SDS011;13944;28.562;77.188;2023-04-21T02:13:57;46.47;;;21.33;;
26201;SDS011;13944;28.562;77.188;2023-04-21T02:16:24;45.25;;;20.42;;
26201;SDS011;13944;28.562;77.188;2023-04-21T02:18:54;44.47;;;20.52;;
26201;SDS011;13944;28.562;77.188;2023-04-21T02:21:21;42.88;;;19.67;;
26201;SDS011;13944;28.562;77.188;2023-04-21T02:23:48;38.92;;;19.90;;
26201;SDS011;13944;28.562;77.188;2023-04-21T02:26:15;43.63;;;19.70;;
26201;SDS011;13944;28.562;77.188;2023-04-21T02:28:42;46.30;;;19.23;;
26201;SDS011;13944;28.562;77.188;2023-04-21T02:31:08;42.17;;;18.55;;
26201;SDS011;13944;28.562;77.188;2023-04-21T02:33:35;43.20;;;19.13;;
26201;SDS011;13944;28.562;77.188;2023-04-21T02:36:02;42.95;;;18.38;;
26201;SDS011;13944;28.562;77.188;2023-04-21T02:38:29;46.45;;;17.05;;
26201;SDS011;13944;28.562;77.188;2023-04-21T02:40:56;35.90;;;15.57;;
26201;SDS011;13944;28.562;77.188;2023-04-21T02:43:23;32.25;;;14.80;;
26201;SDS011;13944;28.562;77.188;2023-04-21T02:45:49;33.92;;;15.75;;
26201;SDS011;13944;28.562;77.188;2023-04-21T02:48:16;34.55;;;14.95;;
26201;SDS011;13944;28.562;77.188;2023-04-21T02:50:50;33.13;;;14.80;;
26201;SDS011;13944;28.562;77.188;2023-04-21T02:53:20;39.13;;;15.65;;
26201;SDS011;13944;28.562;77.188;2023-04-21T02:55:46;29.33;;;15.50;;
26201;SDS011;13944;28.562;77.188;2023-04-21T02:58:13;38.35;;;15.63;;
26201;SDS011;13944;28.562;77.188;2023-04-21T03:00:41;68.78;;;20.20;;
26201;SDS011;13944;28.562;77.188;2023-04-21T03:03:09;48.58;;;17.52;;
26201;SDS011;13944;28.562;77.188;2023-04-21T03:05:35;37.78;;;15.77;;
26201;SDS011;13944;28.562;77.188;2023-04-21T03:08:02;31.58;;;15.00;;
26201;SDS011;13944;28.562;77.188;2023-04-21T03:10:28;38.63;;;15.15;;
26201;SDS011;13944;28.562;77.188;2023-04-21T03:12:55;32.05;;;14.18;;
26201;SDS011;13944;28.562;77.188;2023-04-21T03:15:21;36.08;;;15.18;;
26201;SDS011;13944;28.562;77.188;2023-04-21T03:17:48;28.73;;;16.33;;
26201;SDS011;13944;28.562;77.188;2023-04-21T03:20:14;38.67;;;18.83;;
26201;SDS011;13944;28.562;77.188;2023-04-21T03:22:41;36.58;;;17.60;;
26201;SDS011;13944;28.562;77.188;2023-04-21T03:25:07;32.85;;;15.90;;
26201;SDS011;13944;28.562;77.188;2023-04-21T03:27:35;38.75;;;17.80;;
26201;SDS011;13944;28.562;77.188;2023-04-21T03:30:02;33.65;;;16.48;;
26201;SDS011;13944;28.562;77.188;2023-04-21T03:32:28;32.22;;;15.55;;
26201;SDS011;13944;28.562;77.188;2023-04-21T03:34:55;26.27;;;11.52;;
26201;SDS011;13944;28.562;77.188;2023-04-21T03:37:22;32.33;;;12.40;;
26201;SDS011;13944;28.562;77.188;2023-04-21T03:39:48;25.58;;;11.93;;
26201;SDS011;13944;28.562;77.188;2023-04-21T03:42:15;24.13;;;10.65;;
26201;SDS011;13944;28.562;77.188;2023-04-21T03:44:41;27.17;;;11.50;;
26201;SDS011;13944;28.562;77.188;2023-04-21T03:47:08;23.48;;;11.68;;
26201;SDS011;13944;28.562;77.188;2023-04-21T03:49:34;32.28;;;12.73;;
26201;SDS011;13944;28.562;77.188;2023-04-21T03:52:01;46.40;;;30.95;;
26201;SDS011;13944;28.562;77.188;2023-04-21T03:54:28;35.72;;;23.65;;
26201;SDS011;13944;28.562;77.188;2023-04-21T03:56:57;36.53;;;21.77;;
26201;SDS011;13944;28.562;77.188;2023-04-21T03:59:24;38.35;;;17.63;;
26201;SDS011;13944;28.562;77.188;2023-04-21T04:01:50;40.78;;;14.63;;
26201;SDS011;13944;28.562;77.188;2023-04-21T04:04:17;33.72;;;17.38;;
26201;SDS011;13944;28.562;77.188;2023-04-21T04:06:44;34.60;;;17.52;;
26201;SDS011;13944;28.562;77.188;2023-04-21T04:09:11;36.60;;;16.70;;
26201;SDS011;13944;28.562;77.188;2023-04-21T04:11:37;36.08;;;16.73;;
26201;SDS011;13944;28.562;77.188;2023-04-21T04:14:04;35.67;;;14.75;;
26201;SDS011;13944;28.562;77.188;2023-04-21T04:16:32;40.45;;;14.55;;
26201;SDS011;13944;28.562;77.188;2023-04-21T04:18:58;34.72;;;13.75;;
26201;SDS011;13944;28.562;77.188;2023-04-21T04:21:25;30.27;;;13.32;;
26201;SDS011;13944;28.562;77.188;2023-04-21T04:23:52;32.78;;;13.00;;
26201;SDS011;13944;28.562;77.188;2023-04-21T04:26:19;34.55;;;12.68;;
26201;SDS011;13944;28.562;77.188;2023-04-21T04:28:49;40.17;;;12.85;;
26201;SDS011;13944;28.562;77.188;2023-04-21T04:31:16;41.22;;;14.15;;
26201;SDS011;13944;28.562;77.188;2023-04-21T04:33:43;47.20;;;14.18;;
26201;SDS011;13944;28.562;77.188;2023-04-21T04:36:10;40.15;;;13.90;;
26201;SDS011;13944;28.562;77.188;2023-04-21T04:38:37;32.17;;;12.85;;
26201;SDS011;13944;28.562;77.188;2023-04-21T04:41:04;28.02;;;12.15;;
26201;SDS011;13944;28.562;77.188;2023-04-21T04:43:33;27.40;;;12.00;;
26201;SDS011;13944;28.562;77.188;2023-04-21T04:46:04;32.80;;;12.82;;
26201;SDS011;13944;28.562;77.188;2023-04-21T04:48:31;32.20;;;12.85;;
26201;SDS011;13944;28.562;77.188;2023-04-21T04:50:58;26.10;;;12.50;;
26201;SDS011;13944;28.562;77.188;2023-04-21T04:53:26;28.60;;;12.25;;
26201;SDS011;13944;28.562;77.188;2023-04-21T04:55:53;29.10;;;12.20;;
26201;SDS011;13944;28.562;77.188;2023-04-21T04:58:20;38.55;;;15.43;;
26201;SDS011;13944;28.562;77.188;2023-04-21T05:00:46;34.35;;;14.43;;
26201;SDS011;13944;28.562;77.188;2023-04-21T05:03:13;35.00;;;14.60;;
26201;SDS011;13944;28.562;77.188;2023-04-21T05:05:43;28.95;;;14.35;;
26201;SDS011;13944;28.562;77.188;2023-04-21T05:08:10;31.95;;;13.75;;
26201;SDS011;13944;28.562;77.188;2023-04-21T05:10:37;31.30;;;13.40;;
26201;SDS011;13944;28.562;77.188;2023-04-21T05:13:03;34.20;;;14.03;;
26201;SDS011;13944;28.562;77.188;2023-04-21T05:15:30;24.85;;;12.73;;
26201;SDS011;13944;28.562;77.188;2023-04-21T05:17:57;27.60;;;14.52;;
26201;SDS011;13944;28.562;77.188;2023-04-21T05:20:24;37.60;;;15.13;;
26201;SDS011;13944;28.562;77.188;2023-04-21T05:22:50;32.55;;;13.95;;
26201;SDS011;13944;28.562;77.188;2023-04-21T05:25:17;34.33;;;15.67;;
26201;SDS011;13944;28.562;77.188;2023-04-21T05:27:43;33.75;;;15.57;;
26201;SDS011;13944;28.562;77.188;2023-04-21T05:30:12;39.65;;;15.55;;
26201;SDS011;13944;28.562;77.188;2023-04-21T05:32:39;30.20;;;16.05;;
26201;SDS011;13944;28.562;77.188;2023-04-21T05:35:05;30.95;;;13.93;;
26201;SDS011;13944;28.562;77.188;2023-04-21T05:37:32;26.63;;;13.25;;
26201;SDS011;13944;28.562;77.188;2023-04-21T05:39:59;38.45;;;19.08;;
26201;SDS011;13944;28.562;77.188;2023-04-21T05:42:25;50.25;;;21.80;;
26201;SDS011;13944;28.562;77.188;2023-04-21T05:44:52;44.05;;;23.95;;
26201;SDS011;13944;28.562;77.188;2023-04-21T05:47:19;42.85;;;21.23;;
26201;SDS011;13944;28.562;77.188;2023-04-21T05:49:45;39.17;;;19.35;;
26201;SDS011;13944;28.562;77.188;2023-04-21T05:52:14;38.58;;;20.08;;
26201;SDS011;13944;28.562;77.188;2023-04-21T05:54:42;42.83;;;19.42;;
26201;SDS011;13944;28.562;77.188;2023-04-21T05:57:08;43.17;;;19.10;;
26201;SDS011;13944;28.562;77.188;2023-04-21T05:59:35;31.20;;;18.58;;
26201;SDS011;13944;28.562;77.188;2023-04-21T06:02:01;33.17;;;18.20;;
26201;SDS011;13944;28.562;77.188;2023-04-21T06:04:28;39.83;;;17.95;;
26201;SDS011;13944;28.562;77.188;2023-04-21T06:06:54;36.72;;;17.67;;
26201;SDS011;13944;28.562;77.188;2023-04-21T06:09:21;37.42;;;18.25;;
26201;SDS011;13944;28.562;77.188;2023-04-21T06:11:48;36.38;;;18.05;;
26201;SDS011;13944;28.562;77.188;2023-04-21T06:14:14;34.60;;;17.17;;
26201;SDS011;13944;28.562;77.188;2023-04-21T06:16:41;35.65;;;17.27;;
26201;SDS011;13944;28.562;77.188;2023-04-21T06:19:08;31.15;;;15.98;;
26201;SDS011;13944;28.562;77.188;2023-04-21T06:21:34;37.97;;;15.93;;
26201;SDS011;13944;28.562;77.188;2023-04-21T06:24:01;33.67;;;15.82;;
26201;SDS011;13944;28.562;77.188;2023-04-21T06:26:27;31.20;;;15.90;;
26201;SDS011;13944;28.562;77.188;2023-04-21T06:28:55;38.40;;;17.45;;
26201;SDS011;13944;28.562;77.188;2023-04-21T06:31:21;39.85;;;17.40;;
26201;SDS011;13944;28.562;77.188;2023-04-21T06:33:48;44.22;;;15.75;;
26201;SDS011;13944;28.562;77.188;2023-04-21T06:36:15;44.90;;;17.70;;
26201;SDS011;13944;28.562;77.188;2023-04-21T06:38:41;37.92;;;17.10;;
26201;SDS011;13944;28.562;77.188;2023-04-21T06:41:08;34.40;;;16.10;;
26201;SDS011;13944;28.562;77.188;2023-04-21T06:43:37;34.22;;;14.05;;
26201;SDS011;13944;28.562;77.188;2023-04-21T06:46:08;31.42;;;13.73;;
26201;SDS011;13944;28.562;77.188;2023-04-21T06:48:34;38.20;;;13.77;;
26201;SDS011;13944;28.562;77.188;2023-04-21T06:51:01;36.00;;;14.13;;
26201;SDS011;13944;28.562;77.188;2023-04-21T06:53:28;35.35;;;12.85;;
26201;SDS011;13944;28.562;77.188;2023-04-21T06:55:54;35.22;;;13.95;;
26201;SDS011;13944;28.562;77.188;2023-04-21T06:58:21;36.28;;;13.02;;
26201;SDS011;13944;28.562;77.188;2023-04-21T07:00:48;41.05;;;14.25;;
26201;SDS011;13944;28.562;77.188;2023-04-21T07:03:14;45.35;;;14.23;;
26201;SDS011;13944;28.562;77.188;2023-04-21T07:05:41;38.75;;;13.48;;
26201;SDS011;13944;28.562;77.188;2023-04-21T07:08:07;34.97;;;12.85;;
26201;SDS011;13944;28.562;77.188;2023-04-21T07:10:43;45.58;;;13.80;;
26201;SDS011;13944;28.562;77.188;2023-04-21T07:13:10;39.92;;;13.38;;
26201;SDS011;13944;28.562;77.188;2023-04-21T07:15:39;33.10;;;11.75;;
26201;SDS011;13944;28.562;77.188;2023-04-21T07:18:08;45.78;;;11.38;;
26201;SDS011;13944;28.562;77.188;2023-04-21T07:20:35;49.22;;;11.68;;
26201;SDS011;13944;28.562;77.188;2023-04-21T07:23:05;37.30;;;10.25;;
26201;SDS011;13944;28.562;77.188;2023-04-21T07:25:31;34.65;;;9.95;;
26201;SDS011;13944;28.562;77.188;2023-04-21T07:28:01;37.65;;;10.30;;
26201;SDS011;13944;28.562;77.188;2023-04-21T07:30:28;34.33;;;9.32;;
26201;SDS011;13944;28.562;77.188;2023-04-21T07:32:56;33.25;;;9.52;;
26201;SDS011;13944;28.562;77.188;2023-04-21T07:35:28;37.17;;;9.50;;
26201;SDS011;13944;28.562;77.188;2023-04-21T07:37:55;34.65;;;10.30;;
26201;SDS011;13944;28.562;77.188;2023-04-21T07:40:22;34.67;;;10.07;;
26201;SDS011;13944;28.562;77.188;2023-04-21T07:42:48;30.63;;;9.45;;
26201;SDS011;13944;28.562;77.188;2023-04-21T07:45:15;37.67;;;10.00;;
26201;SDS011;13944;28.562;77.188;2023-04-21T07:47:44;29.10;;;8.98;;
26201;SDS011;13944;28.562;77.188;2023-04-21T07:50:10;33.88;;;10.13;;
26201;SDS011;13944;28.562;77.188;2023-04-21T07:52:40;33.85;;;9.30;;
26201;SDS011;13944;28.562;77.188;2023-04-21T07:55:07;37.92;;;9.63;;
26201;SDS011;13944;28.562;77.188;2023-04-21T07:57:38;37.25;;;10.23;;
26201;SDS011;13944;28.562;77.188;2023-04-21T08:00:11;38.72;;;10.65;;
26201;SDS011;13944;28.562;77.188;2023-04-21T08:02:38;34.50;;;10.00;;
26201;SDS011;13944;28.562;77.188;2023-04-21T08:05:05;43.80;;;10.18;;
26201;SDS011;13944;28.562;77.188;2023-04-21T08:07:31;35.38;;;10.32;;
26201;SDS011;13944;28.562;77.188;2023-04-21T08:09:58;43.25;;;10.20;;
26201;SDS011;13944;28.562;77.188;2023-04-21T08:12:25;44.00;;;9.70;;
26201;SDS011;13944;28.562;77.188;2023-04-21T08:14:52;36.78;;;9.88;;
26201;SDS011;13944;28.562;77.188;2023-04-21T08:17:18;39.78;;;10.60;;
26201;SDS011;13944;28.562;77.188;2023-04-21T08:19:45;32.10;;;9.48;;
26201;SDS011;13944;28.562;77.188;2023-04-21T08:22:11;30.30;;;8.52;;
26201;SDS011;13944;28.562;77.188;2023-04-21T08:24:38;34.35;;;8.63;;
26201;SDS011;13944;28.562;77.188;2023-04-21T08:27:04;33.08;;;9.10;;
26201;SDS011;13944;28.562;77.188;2023-04-21T08:29:31;38.55;;;10.48;;
26201;SDS011;13944;28.562;77.188;2023-04-21T08:31:57;35.97;;;8.52;;
26201;SDS011;13944;28.562;77.188;2023-04-21T08:34:26;36.40;;;8.07;;
26201;SDS011;13944;28.562;77.188;2023-04-21T08:36:53;39.50;;;8.38;;
26201;SDS011;13944;28.562;77.188;2023-04-21T08:39:19;23.92;;;7.10;;
26201;SDS011;13944;28.562;77.188;2023-04-21T08:41:46;37.53;;;8.48;;
26201;SDS011;13944;28.562;77.188;2023-04-21T08:44:13;28.60;;;7.68;;
26201;SDS011;13944;28.562;77.188;2023-04-21T08:46:40;31.15;;;6.35;;
26201;SDS011;13944;28.562;77.188;2023-04-21T08:49:08;31.20;;;7.15;;
26201;SDS011;13944;28.562;77.188;2023-04-21T08:51:35;29.95;;;7.55;;
26201;SDS011;13944;28.562;77.188;2023-04-21T08:54:01;37.00;;;7.47;;
26201;SDS011;13944;28.562;77.188;2023-04-21T08:56:28;32.92;;;7.28;;
26201;SDS011;13944;28.562;77.188;2023-04-21T08:58:54;28.10;;;7.18;;
26201;SDS011;13944;28.562;77.188;2023-04-21T09:01:21;36.97;;;6.80;;
26201;SDS011;13944;28.562;77.188;2023-04-21T09:03:48;31.52;;;6.82;;
26201;SDS011;13944;28.562;77.188;2023-04-21T09:06:14;33.40;;;7.90;;
26201;SDS011;13944;28.562;77.188;2023-04-21T09:08:41;36.85;;;8.48;;
26201;SDS011;13944;28.562;77.188;2023-04-21T09:11:12;33.35;;;7.18;;
26201;SDS011;13944;28.562;77.188;2023-04-21T09:13:42;33.45;;;7.82;;
26201;SDS011;13944;28.562;77.188;2023-04-21T09:16:18;40.00;;;8.65;;
26201;SDS011;13944;28.562;77.188;2023-04-21T09:18:47;34.65;;;8.10;;
26201;SDS011;13944;28.562;77.188;2023-04-21T09:21:15;35.22;;;8.23;;
26201;SDS011;13944;28.562;77.188;2023-04-21T09:23:43;34.78;;;8.10;;
26201;SDS011;13944;28.562;77.188;2023-04-21T09:26:10;41.00;;;8.13;;
26201;SDS011;13944;28.562;77.188;2023-04-21T09:28:39;35.97;;;8.20;;
26201;SDS011;13944;28.562;77.188;2023-04-21T09:31:11;34.08;;;8.10;;
26201;SDS011;13944;28.562;77.188;2023-04-21T09:33:43;29.25;;;8.05;;
26201;SDS011;13944;28.562;77.188;2023-04-21T09:36:16;32.15;;;7.90;;
26201;SDS011;13944;28.562;77.188;2023-04-21T09:38:46;36.38;;;8.07;;
26201;SDS011;13944;28.562;77.188;2023-04-21T09:41:13;34.78;;;8.50;;
26201;SDS011;13944;28.562;77.188;2023-04-21T09:43:43;34.78;;;8.70;;
26201;SDS011;13944;28.562;77.188;2023-04-21T09:46:10;37.53;;;9.70;;
26201;SDS011;13944;28.562;77.188;2023-04-21T09:48:39;33.45;;;8.68;;
26201;SDS011;13944;28.562;77.188;2023-04-21T09:51:09;36.50;;;7.82;;
26201;SDS011;13944;28.562;77.188;2023-04-21T09:53:38;36.60;;;8.82;;
26201;SDS011;13944;28.562;77.188;2023-04-21T09:56:05;35.30;;;8.48;;
26201;SDS011;13944;28.562;77.188;2023-04-21T09:58:34;32.25;;;8.27;;
26201;SDS011;13944;28.562;77.188;2023-04-21T10:01:03;31.48;;;8.52;;
26201;SDS011;13944;28.562;77.188;2023-04-21T10:03:31;34.90;;;8.90;;
26201;SDS011;13944;28.562;77.188;2023-04-21T10:05:57;31.48;;;8.88;;
26201;SDS011;13944;28.562;77.188;2023-04-21T10:08:24;36.90;;;9.23;;
26201;SDS011;13944;28.562;77.188;2023-04-21T10:10:51;38.22;;;9.05;;
26201;SDS011;13944;28.562;77.188;2023-04-21T10:13:20;36.03;;;9.00;;
26201;SDS011;13944;28.562;77.188;2023-04-21T10:15:47;44.65;;;9.40;;
26201;SDS011;13944;28.562;77.188;2023-04-21T10:18:18;33.42;;;8.43;;
26201;SDS011;13944;28.562;77.188;2023-04-21T10:20:55;42.78;;;9.23;;
26201;SDS011;13944;28.562;77.188;2023-04-21T10:26:13;34.63;;;9.50;;
26201;SDS011;13944;28.562;77.188;2023-04-21T10:36:33;37.67;;;9.68;;
26201;SDS011;13944;28.562;77.188;2023-04-21T10:39:00;43.08;;;10.88;;
26201;SDS011;13944;28.562;77.188;2023-04-21T10:41:31;43.90;;;10.43;;
26201;SDS011;13944;28.562;77.188;2023-04-21T10:43:58;43.80;;;10.77;;
26201;SDS011;13944;28.562;77.188;2023-04-21T10:49:07;39.20;;;10.25;;
26201;SDS011;13944;28.562;77.188;2023-04-21T10:54:23;35.47;;;9.70;;
26201;SDS011;13944;28.562;77.188;2023-04-21T10:56:50;30.13;;;9.40;;
26201;SDS011;13944;28.562;77.188;2023-04-21T10:59:18;40.00;;;9.10;;
26201;SDS011;13944;28.562;77.188;2023-04-21T11:01:44;29.10;;;8.60;;
26201;SDS011;13944;28.562;77.188;2023-04-21T11:04:15;30.17;;;8.85;;
26201;SDS011;13944;28.562;77.188;2023-04-21T11:06:42;27.15;;;8.80;;
26201;SDS011;13944;28.562;77.188;2023-04-21T11:09:09;32.10;;;8.90;;
26201;SDS011;13944;28.562;77.188;2023-04-21T11:11:35;44.13;;;10.15;;
26201;SDS011;13944;28.562;77.188;2023-04-21T11:14:02;33.25;;;9.18;;
26201;SDS011;13944;28.562;77.188;2023-04-21T11:16:28;39.65;;;9.60;;
26201;SDS011;13944;28.562;77.188;2023-04-21T11:18:56;35.28;;;8.82;;
26201;SDS011;13944;28.562;77.188;2023-04-21T11:21:22;30.40;;;9.48;;
26201;SDS011;13944;28.562;77.188;2023-04-21T11:23:56;40.67;;;10.75;;
26201;SDS011;13944;28.562;77.188;2023-04-21T11:26:33;38.95;;;9.20;;
26201;SDS011;13944;28.562;77.188;2023-04-21T11:29:05;41.05;;;10.18;;
26201;SDS011;13944;28.562;77.188;2023-04-21T11:31:32;32.70;;;8.65;;
26201;SDS011;13944;28.562;77.188;2023-04-21T11:33:59;32.45;;;8.98;;
26201;SDS011;13944;28.562;77.188;2023-04-21T11:36:26;33.97;;;8.43;;
26201;SDS011;13944;28.562;77.188;2023-04-21T11:38:53;29.60;;;8.95;;
26201;SDS011;13944;28.562;77.188;2023-04-21T11:41:22;33.53;;;8.45;;
26201;SDS011;13944;28.562;77.188;2023-04-21T11:43:50;27.75;;;7.97;;
26201;SDS011;13944;28.562;77.188;2023-04-21T11:46:18;27.02;;;6.70;;
26201;SDS011;13944;28.562;77.188;2023-04-21T11:48:56;24.48;;;7.22;;
26201;SDS011;13944;28.562;77.188;2023-04-21T11:51:23;22.90;;;7.32;;
26201;SDS011;13944;28.562;77.188;2023-04-21T11:53:50;20.90;;;7.40;;
26201;SDS011;13944;28.562;77.188;2023-04-21T11:56:17;29.60;;;8.38;;
26201;SDS011;13944;28.562;77.188;2023-04-21T11:58:44;31.42;;;8.50;;
26201;SDS011;13944;28.562;77.188;2023-04-21T12:01:13;26.73;;;7.70;;
26201;SDS011;13944;28.562;77.188;2023-04-21T12:03:40;31.00;;;7.60;;
26201;SDS011;13944;28.562;77.188;2023-04-21T12:06:07;21.77;;;7.60;;
26201;SDS011;13944;28.562;77.188;2023-04-21T12:08:33;30.98;;;8.85;;
26201;SDS011;13944;28.562;77.188;2023-04-21T12:11:01;33.50;;;8.32;;
26201;SDS011;13944;28.562;77.188;2023-04-21T12:13:27;29.95;;;8.63;;
26201;SDS011;13944;28.562;77.188;2023-04-21T12:15:55;27.48;;;7.63;;
26201;SDS011;13944;28.562;77.188;2023-04-21T12:18:25;26.20;;;7.90;;
26201;SDS011;13944;28.562;77.188;2023-04-21T12:20:52;25.17;;;7.90;;
26201;SDS011;13944;28.562;77.188;2023-04-21T12:23:19;26.35;;;7.70;;
26201;SDS011;13944;28.562;77.188;2023-04-21T12:25:45;21.88;;;6.70;;
26201;SDS011;13944;28.562;77.188;2023-04-21T12:28:13;23.92;;;6.65;;
26201;SDS011;13944;28.562;77.188;2023-04-21T12:30:41;24.48;;;7.95;;
26201;SDS011;13944;28.562;77.188;2023-04-21T12:33:08;21.23;;;7.40;;
26201;SDS011;13944;28.562;77.188;2023-04-21T12:35:35;20.67;;;7.28;;
26201;SDS011;13944;28.562;77.188;2023-04-21T12:38:01;21.83;;;6.43;;
26201;SDS011;13944;28.562;77.188;2023-04-21T12:40:28;25.30;;;6.32;;
26201;SDS011;13944;28.562;77.188;2023-04-21T12:42:54;24.85;;;7.47;;
26201;SDS011;13944;28.562;77.188;2023-04-21T12:45:21;24.92;;;7.18;;
26201;SDS011;13944;28.562;77.188;2023-04-21T12:47:47;33.33;;;9.00;;
26201;SDS011;13944;28.562;77.188;2023-04-21T12:50:14;22.67;;;7.90;;
26201;SDS011;13944;28.562;77.188;2023-04-21T12:52:41;30.75;;;9.25;;
26201;SDS011;13944;28.562;77.188;2023-04-21T12:55:07;29.75;;;8.82;;
26201;SDS011;13944;28.562;77.188;2023-04-21T12:57:34;23.63;;;8.93;;
26201;SDS011;13944;28.562;77.188;2023-04-21T13:00:00;30.30;;;9.68;;
26201;SDS011;13944;28.562;77.188;2023-04-21T13:02:28;28.00;;;9.82;;
26201;SDS011;13944;28.562;77.188;2023-04-21T13:05:01;37.60;;;10.38;;
26201;SDS011;13944;28.562;77.188;2023-04-21T13:07:29;37.92;;;10.82;;
26201;SDS011;13944;28.562;77.188;2023-04-21T13:09:56;39.92;;;11.43;;
26201;SDS011;13944;28.562;77.188;2023-04-21T13:12:22;41.88;;;12.88;;
26201;SDS011;13944;28.562;77.188;2023-04-21T13:14:49;43.10;;;12.38;;
26201;SDS011;13944;28.562;77.188;2023-04-21T13:17:16;38.85;;;12.25;;
26201;SDS011;13944;28.562;77.188;2023-04-21T13:19:42;43.95;;;12.82;;
26201;SDS011;13944;28.562;77.188;2023-04-21T13:22:09;48.47;;;13.27;;
26201;SDS011;13944;28.562;77.188;2023-04-21T13:24:35;41.85;;;12.63;;
26201;SDS011;13944;28.562;77.188;2023-04-21T13:27:02;48.38;;;13.20;;
26201;SDS011;13944;28.562;77.188;2023-04-21T13:29:28;49.10;;;12.70;;
26201;SDS011;13944;28.562;77.188;2023-04-21T13:32:04;44.90;;;13.95;;
26201;SDS011;13944;28.562;77.188;2023-04-21T13:34:31;50.67;;;14.63;;
26201;SDS011;13944;28.562;77.188;2023-04-21T13:36:58;48.35;;;13.15;;
26201;SDS011;13944;28.562;77.188;2023-04-21T13:39:25;58.30;;;15.90;;
26201;SDS011;13944;28.562;77.188;2023-04-21T13:41:51;69.78;;;17.25;;
26201;SDS011;13944;28.562;77.188;2023-04-21T13:44:18;65.28;;;16.73;;
26201;SDS011;13944;28.562;77.188;2023-04-21T13:46:48;58.55;;;16.90;;
26201;SDS011;13944;28.562;77.188;2023-04-21T13:49:17;69.50;;;16.77;;
26201;SDS011;13944;28.562;77.188;2023-04-21T13:51:43;60.60;;;17.73;;
26201;SDS011;13944;28.562;77.188;2023-04-21T13:54:10;67.22;;;16.83;;
26201;SDS011;13944;28.562;77.188;2023-04-21T13:56:36;62.90;;;17.83;;
26201;SDS011;13944;28.562;77.188;2023-04-21T13:59:03;62.97;;;17.05;;
26201;SDS011;13944;28.562;77.188;2023-04-21T14:01:30;73.50;;;18.17;;
26201;SDS011;13944;28.562;77.188;2023-04-21T14:03:57;62.47;;;17.10;;
26201;SDS011;13944;28.562;77.188;2023-04-21T14:06:23;69.75;;;16.55;;
26201;SDS011;13944;28.562;77.188;2023-04-21T14:08:50;72.25;;;17.58;;
26201;SDS011;13944;28.562;77.188;2023-04-21T14:11:17;68.88;;;16.50;;
26201;SDS011;13944;28.562;77.188;2023-04-21T14:13:43;70.40;;;17.08;;
26201;SDS011;13944;28.562;77.188;2023-04-21T14:16:10;66.05;;;16.30;;
26201;SDS011;13944;28.562;77.188;2023-04-21T14:18:37;66.45;;;16.60;;
26201;SDS011;13944;28.562;77.188;2023-04-21T14:21:08;72.10;;;17.88;;
26201;SDS011;13944;28.562;77.188;2023-04-21T14:23:35;62.90;;;17.02;;
26201;SDS011;13944;28.562;77.188;2023-04-21T14:26:02;65.85;;;18.23;;
26201;SDS011;13944;28.562;77.188;2023-04-21T14:28:29;59.75;;;17.63;;
26201;SDS011;13944;28.562;77.188;2023-04-21T14:30:56;51.85;;;17.13;;
26201;SDS011;13944;28.562;77.188;2023-04-21T14:33:23;56.08;;;16.52;;